Time;durP1;ratioP1;P1;durP2;ratioP2;P2;SDS_P1;SDS_P2;PMS_P1;PMS_P2;Temp;Humidity;BMP_temperature;BMP_pressure;BME280_temperature;BME280_humidity;BME280_pressure;Samples;Min_cycle;Max_cycle;Signal;HPM_P1;HPM_P2
2023/10/12 00:01:59;;;;;;;10.45;2.67;;;;;;;;;;5012898;28;20037;-76
2023/10/12 00:04:43;;;;;;;11.02;2.72;;;;;;;;;;5011750;28;20022;-76
2023/10/12 00:07:15;;;;;;;6.37;2.20;;;;;;;;;;5011854;28;20022;-76
2023/10/12 00:09:48;;;;;;;9.35;2.30;;;;;;;;;;5012785;28;20017;-76
2023/10/12 00:12:24;;;;;;;10.53;2.70;;;;;;;;;;5016975;28;20113;-76
2023/10/12 00:14:56;;;;;;;8.82;3.25;;;;;;;;;;5015772;28;20113;-76
2023/10/12 00:17:26;;;;;;;11.45;2.50;;;;;;;;;;5017642;28;20033;-76
2023/10/12 00:19:52;;;;;;;8.32;2.70;;;;;;;;;;5015609;28;20052;-76
2023/10/12 00:22:17;;;;;;;11.93;3.33;;;;;;;;;;5016675;28;20026;-75
2023/10/12 00:24:43;;;;;;;8.15;2.53;;;;;;;;;;5016804;28;20026;-76
2023/10/12 00:27:09;;;;;;;12.27;3.05;;;;;;;;;;5016806;28;20018;-75
2023/10/12 00:29:39;;;;;;;10.73;2.92;;;;;;;;;;5016686;28;20029;-76
2023/10/12 00:32:08;;;;;;;9.68;2.88;;;;;;;;;;5017077;28;20025;-76
2023/10/12 00:34:37;;;;;;;9.00;2.67;;;;;;;;;;5015409;28;20047;-76
2023/10/12 00:37:03;;;;;;;9.52;2.40;;;;;;;;;;5015275;28;20112;-76
2023/10/12 00:39:44;;;;;;;9.68;2.50;;;;;;;;;;5016593;28;20168;-76
2023/10/12 00:42:11;;;;;;;8.80;2.78;;;;;;;;;;5016408;28;20100;-77
2023/10/12 00:44:40;;;;;;;11.02;2.63;;;;;;;;;;5015198;28;20030;-75
2023/10/12 00:47:13;;;;;;;5.25;2.58;;;;;;;;;;5016397;28;20045;-76
2023/10/12 00:49:41;;;;;;;7.82;2.60;;;;;;;;;;5016518;28;20392;-76
2023/10/12 00:52:08;;;;;;;6.35;2.63;;;;;;;;;;5016532;28;20030;-75
2023/10/12 00:57:05;;;;;;;6.70;2.35;;;;;;;;;;5016196;28;20092;-75
2023/10/12 00:59:34;;;;;;;11.10;2.70;;;;;;;;;;5014901;28;20021;-76
2023/10/12 01:02:09;;;;;;;7.00;2.58;;;;;;;;;;5014735;28;20025;-76
2023/10/12 01:04:36;;;;;;;10.85;2.67;;;;;;;;;;5014958;28;20034;-76
2023/10/12 01:07:06;;;;;;;10.18;2.55;;;;;;;;;;5016017;28;20053;-76
2023/10/12 01:09:39;;;;;;;13.63;2.60;;;;;;;;;;5016379;28;20477;-77
2023/10/12 01:12:12;;;;;;;11.60;3.00;;;;;;;;;;5015947;28;20104;-77
2023/10/12 01:14:40;;;;;;;6.75;2.30;;;;;;;;;;5016037;28;20021;-77
2023/10/12 01:17:08;;;;;;;10.27;2.55;;;;;;;;;;5016159;28;20496;-76
2023/10/12 01:19:44;;;;;;;9.88;2.40;;;;;;;;;;5015082;28;20128;-76
2023/10/12 01:22:14;;;;;;;13.13;3.10;;;;;;;;;;5015081;28;20029;-77
2023/10/12 01:24:57;;;;;;;15.32;3.45;;;;;;;;;;5016013;28;20029;-77
2023/10/12 01:27:25;;;;;;;11.43;2.87;;;;;;;;;;5015990;28;20050;-77
2023/10/12 01:29:51;;;;;;;11.23;2.47;;;;;;;;;;5014400;28;20294;-76
2023/10/12 01:34:53;;;;;;;13.80;2.70;;;;;;;;;;5016146;28;20029;-76
2023/10/12 01:37:22;;;;;;;11.65;2.72;;;;;;;;;;5014267;28;20052;-77
2023/10/12 01:45:16;;;;;;;7.70;2.50;;;;;;;;;;5015780;28;20026;-77
2023/10/12 01:47:42;;;;;;;12.40;2.90;;;;;;;;;;5015622;28;20026;-77
2023/10/12 01:50:07;;;;;;;9.77;2.70;;;;;;;;;;5016027;28;20465;-76
2023/10/12 01:52:34;;;;;;;12.18;2.60;;;;;;;;;;5015312;28;20075;-76
2023/10/12 01:54:59;;;;;;;7.63;2.40;;;;;;;;;;5013880;28;20104;-77
2023/10/12 01:57:30;;;;;;;10.27;2.33;;;;;;;;;;5015121;28;20164;-76
2023/10/12 01:59:55;;;;;;;8.80;2.50;;;;;;;;;;5015196;28;20025;-76
2023/10/12 02:02:21;;;;;;;9.73;2.75;;;;;;;;;;5014893;28;20033;-76
2023/10/12 02:04:48;;;;;;;9.18;2.30;;;;;;;;;;5013714;28;20032;-76
2023/10/12 02:07:14;;;;;;;9.52;2.55;;;;;;;;;;5013621;28;20381;-76
2023/10/12 02:09:39;;;;;;;7.45;2.50;;;;;;;;;;5015239;28;20040;-76
2023/10/12 02:12:13;;;;;;;7.80;2.60;;;;;;;;;;5013492;28;20057;-76
2023/10/12 02:14:41;;;;;;;9.75;2.38;;;;;;;;;;5015292;28;20252;-76
2023/10/12 02:17:08;;;;;;;10.25;2.60;;;;;;;;;;5014692;28;20029;-76
2023/10/12 02:19:43;;;;;;;11.65;2.60;;;;;;;;;;5014748;28;20022;-76
2023/10/12 02:25:18;;;;;;;7.65;2.58;;;;;;;;;;5010032;28;20441;-76
2023/10/12 02:27:54;;;;;;;8.90;2.65;;;;;;;;;;5015169;28;20101;-77
2023/10/12 02:30:21;;;;;;;11.65;2.50;;;;;;;;;;5014840;28;20033;-76
2023/10/12 02:32:46;;;;;;;12.65;2.75;;;;;;;;;;5013644;28;20030;-76
2023/10/12 02:35:14;;;;;;;13.27;3.42;;;;;;;;;;5012810;28;20113;-76
2023/10/12 02:37:39;;;;;;;12.80;2.60;;;;;;;;;;5014402;28;20026;-76
2023/10/12 02:40:11;;;;;;;12.90;2.70;;;;;;;;;;5014369;28;20022;-76
2023/10/12 02:42:40;;;;;;;9.80;2.80;;;;;;;;;;5014102;28;20026;-76
2023/10/12 02:45:19;;;;;;;8.85;2.58;;;;;;;;;;5014487;28;20033;-76
2023/10/12 02:47:46;;;;;;;5.55;2.47;;;;;;;;;;5014257;28;20026;-77
2023/10/12 02:52:38;;;;;;;9.18;2.63;;;;;;;;;;5014302;28;20457;-77
2023/10/12 02:57:53;;;;;;;6.32;3.25;;;;;;;;;;5014375;28;20022;-76
2023/10/12 03:00:22;;;;;;;7.78;2.72;;;;;;;;;;5013958;28;20556;-77
2023/10/12 03:02:51;;;;;;;9.25;2.95;;;;;;;;;;5013981;28;20053;-77
2023/10/12 03:05:31;;;;;;;11.68;3.65;;;;;;;;;;5014145;28;20029;-76
2023/10/12 03:08:05;;;;;;;7.93;2.80;;;;;;;;;;5013898;28;20409;-77
2023/10/12 03:10:30;;;;;;;15.18;2.47;;;;;;;;;;5012579;28;20026;-77
2023/10/12 03:12:55;;;;;;;9.57;2.42;;;;;;;;;;5013765;28;20085;-77
2023/10/12 03:15:36;;;;;;;6.23;2.60;;;;;;;;;;5012541;28;20187;-76
2023/10/12 03:18:04;;;;;;;10.25;2.45;;;;;;;;;;5014050;28;20334;-78
2023/10/12 03:20:29;;;;;;;9.82;2.75;;;;;;;;;;5012382;28;20065;-77
2023/10/12 03:22:59;;;;;;;10.67;2.30;;;;;;;;;;5013517;28;20101;-77
2023/10/12 03:25:43;;;;;;;5.20;2.40;;;;;;;;;;5012285;28;20611;-76
2023/10/12 03:28:13;;;;;;;9.67;2.70;;;;;;;;;;5013860;28;20152;-76
2023/10/12 03:30:44;;;;;;;5.15;2.58;;;;;;;;;;5014124;28;20017;-77
2023/10/12 03:33:15;;;;;;;10.98;2.65;;;;;;;;;;5013556;28;20536;-76
2023/10/12 03:36:13;;;;;;;7.50;2.50;;;;;;;;;;5013456;28;20113;-77
2023/10/12 03:38:39;;;;;;;11.23;2.90;;;;;;;;;;5013421;28;20125;-76
2023/10/12 03:43:54;;;;;;;8.27;2.67;;;;;;;;;;5013227;28;20025;-76
2023/10/12 03:46:27;;;;;;;6.90;2.45;;;;;;;;;;5012003;28;20603;-76
2023/10/12 03:51:39;;;;;;;;;;;;;;;;;;5013785;28;20091;-76
2023/10/12 03:54:12;;;;;;;6.60;2.67;;;;;;;;;;5013369;28;20348;-76
2023/10/12 03:56:39;;;;;;;9.65;2.67;;;;;;;;;;5013873;28;20029;-76
2023/10/12 03:59:08;;;;;;;6.18;2.30;;;;;;;;;;5011959;28;20034;-76
2023/10/12 04:01:40;;;;;;;11.57;2.72;;;;;;;;;;5013329;28;20037;-75
2023/10/12 04:04:10;;;;;;;8.75;2.70;;;;;;;;;;5012901;28;20026;-76
2023/10/12 04:07:37;;;;;;;13.40;2.85;;;;;;;;;;5013477;28;20026;-76
2023/10/12 04:09:31;;;;;;;8.93;2.40;;;;;;;;;;5005726;28;20038;-76
2023/10/12 04:12:19;;;;;;;13.70;2.78;;;;;;;;;;5013047;28;20044;-76
2023/10/12 04:14:55;;;;;;;7.05;2.42;;;;;;;;;;5011837;28;20038;-76
2023/10/12 04:20:15;;;;;;;6.95;2.70;;;;;;;;;;5013315;28;20038;-77
2023/10/12 04:25:32;;;;;;;7.80;2.80;;;;;;;;;;5013260;28;20022;-76
2023/10/12 04:31:20;;;;;;;7.75;2.67;;;;;;;;;;5013441;28;20033;-77
2023/10/12 04:33:43;;;;;;;8.20;2.55;;;;;;;;;;5012602;28;20504;-77
2023/10/12 04:43:52;;;;;;;9.88;2.80;;;;;;;;;;5013085;28;20116;-76
2023/10/12 04:48:51;;;;;;;8.15;2.28;;;;;;;;;;5012770;28;20029;-77
2023/10/12 04:51:21;;;;;;;6.78;2.67;;;;;;;;;;5012681;28;20029;-77
2023/10/12 04:54:05;;;;;;;4.68;2.30;;;;;;;;;;5012591;28;20033;-77
2023/10/12 04:56:36;;;;;;;7.95;2.95;;;;;;;;;;5012411;28;20431;-77
2023/10/12 04:59:14;;;;;;;14.20;2.50;;;;;;;;;;5016544;28;20025;-77
2023/10/12 05:09:49;;;;;;;9.30;2.85;;;;;;;;;;5016398;28;20057;-77
2023/10/12 05:12:20;;;;;;;17.48;3.13;;;;;;;;;;5016166;28;20075;-77
2023/10/12 05:14:46;;;;;;;10.90;2.72;;;;;;;;;;5014674;28;20411;-77
2023/10/12 05:17:11;;;;;;;6.45;2.88;;;;;;;;;;5016123;28;20022;-77
2023/10/12 05:19:37;;;;;;;8.20;2.80;;;;;;;;;;5015930;28;20062;-75
2023/10/12 05:22:02;;;;;;;11.52;2.97;;;;;;;;;;5015804;28;20026;-76
2023/10/12 05:24:28;;;;;;;6.65;2.47;;;;;;;;;;5014516;28;20500;-77
2023/10/12 05:27:39;;;;;;;8.45;3.00;;;;;;;;;;5016400;28;20038;-76
2023/10/12 05:29:45;;;;;;;6.07;2.78;;;;;;;;;;5011652;28;20034;-76
2023/10/12 05:32:36;;;;;;;7.05;2.53;;;;;;;;;;5014209;28;20026;-76
2023/10/12 05:35:04;;;;;;;10.20;2.70;;;;;;;;;;5016118;28;20032;-76
2023/10/12 05:37:38;;;;;;;7.93;3.00;;;;;;;;;;5015806;28;20025;-76
2023/10/12 05:40:09;;;;;;;8.43;3.20;;;;;;;;;;5015424;28;20030;-76
2023/10/12 05:42:39;;;;;;;11.52;3.10;;;;;;;;;;5015675;28;20045;-77
2023/10/12 05:45:21;;;;;;;9.50;2.80;;;;;;;;;;5015873;28;20117;-76
2023/10/12 05:47:51;;;;;;;14.23;2.83;;;;;;;;;;5014097;28;20026;-75
2023/10/12 05:50:16;;;;;;;8.43;2.90;;;;;;;;;;5015233;28;20072;-75
2023/10/12 05:52:41;;;;;;;10.03;3.20;;;;;;;;;;5015870;28;20030;-75
2023/10/12 05:55:19;;;;;;;16.48;3.28;;;;;;;;;;5015150;28;20267;-76
2023/10/12 05:57:44;;;;;;;14.38;3.17;;;;;;;;;;5015822;28;20044;-76
2023/10/12 06:00:11;;;;;;;7.73;2.97;;;;;;;;;;5016641;28;20026;-76
2023/10/12 06:02:37;;;;;;;10.18;2.92;;;;;;;;;;5015028;28;20346;-76
2023/10/12 06:05:05;;;;;;;8.18;2.75;;;;;;;;;;5013791;28;20028;-74
2023/10/12 06:07:31;;;;;;;12.85;3.30;;;;;;;;;;5015213;28;20029;-75
2023/10/12 06:09:56;;;;;;;7.10;2.83;;;;;;;;;;5013704;28;20025;-75
2023/10/12 06:12:24;;;;;;;12.80;2.90;;;;;;;;;;5014776;28;20018;-75
2023/10/12 06:14:53;;;;;;;12.93;3.15;;;;;;;;;;5014743;28;20263;-76
2023/10/12 06:17:30;;;;;;;11.02;3.40;;;;;;;;;;5014618;28;20101;-74
2023/10/12 06:19:58;;;;;;;10.30;2.83;;;;;;;;;;5014670;28;20032;-77
2023/10/12 06:22:25;;;;;;;9.00;2.88;;;;;;;;;;5014596;28;20499;-74
2023/10/12 06:24:52;;;;;;;14.88;2.95;;;;;;;;;;5014637;28;20551;-75
2023/10/12 06:29:47;;;;;;;10.13;2.78;;;;;;;;;;5014749;28;20034;-75
2023/10/12 06:32:31;;;;;;;9.77;2.90;;;;;;;;;;5014230;28;20036;-76
2023/10/12 06:45:52;;;;;;;9.43;3.00;;;;;;;;;;5071508;28;20021;-75
2023/10/12 06:51:05;;;;;;;13.07;3.00;;;;;;;;;;5071368;28;20468;-75
2023/10/12 06:53:35;;;;;;;8.57;2.70;;;;;;;;;;5069869;28;20414;-75
2023/10/12 06:59:09;;;;;;;7.38;3.35;;;;;;;;;;5070196;28;20028;-75
2023/10/12 07:04:15;;;;;;;11.60;3.22;;;;;;;;;;5070157;28;20025;-75
2023/10/12 07:06:42;;;;;;;11.65;2.70;;;;;;;;;;5069604;28;20031;-75
2023/10/12 07:09:07;;;;;;;8.90;3.50;;;;;;;;;;5068262;28;20484;-75
2023/10/12 07:11:33;;;;;;;9.52;3.70;;;;;;;;;;5069432;28;20027;-75
2023/10/12 07:14:04;;;;;;;11.55;2.97;;;;;;;;;;5069420;28;20031;-75
2023/10/12 07:16:32;;;;;;;9.90;3.60;;;;;;;;;;5069404;28;20039;-75
2023/10/12 07:18:58;;;;;;;6.75;3.20;;;;;;;;;;5069512;28;20025;-74
2023/10/12 07:21:23;;;;;;;9.55;3.33;;;;;;;;;;5069384;28;20059;-75
2023/10/12 07:23:52;;;;;;;12.05;3.50;;;;;;;;;;5069215;28;20403;-75
2023/10/12 07:26:22;;;;;;;9.35;3.20;;;;;;;;;;5069190;28;20071;-75
2023/10/12 07:28:49;;;;;;;15.23;3.03;;;;;;;;;;5068891;28;20029;-75
2023/10/12 07:41:53;;;;;;;14.13;3.67;;;;;;;;;;5069065;28;19908;-75
2023/10/12 07:44:20;;;;;;;9.65;3.10;;;;;;;;;;5069292;28;20104;-77
2023/10/12 07:46:46;;;;;;;14.23;3.83;;;;;;;;;;5067375;28;20411;-75
2023/10/12 07:49:25;;;;;;;7.60;3.63;;;;;;;;;;5055654;28;20016;-75
2023/10/12 07:51:59;;;;;;;13.32;4.03;;;;;;;;;;5055404;28;20059;-76
2023/10/12 07:57:09;;;;;;;9.32;3.30;;;;;;;;;;5055284;28;19915;-76
2023/10/12 07:59:38;;;;;;;10.32;3.33;;;;;;;;;;5055287;28;20086;-75
2023/10/12 08:02:15;;;;;;;5.93;3.42;;;;;;;;;;5055320;28;20525;-75
2023/10/12 08:04:56;;;;;;;9.63;3.53;;;;;;;;;;5055179;28;20021;-75
2023/10/12 08:07:26;;;;;;;9.07;3.30;;;;;;;;;;5055339;28;20029;-76
2023/10/12 08:09:51;;;;;;;10.80;3.25;;;;;;;;;;5053859;28;20032;-75
2023/10/12 08:12:26;;;;;;;9.18;3.08;;;;;;;;;;5055064;28;20021;-75
2023/10/12 08:15:09;;;;;;;9.63;3.85;;;;;;;;;;5055060;28;20020;-75
2023/10/12 08:17:34;;;;;;;7.38;3.60;;;;;;;;;;5055444;28;20021;-76
2023/10/12 08:20:45;;;;;;;7.28;3.22;;;;;;;;;;5054843;28;20100;-75
2023/10/12 08:23:01;;;;;;;9.30;3.42;;;;;;;;;;5054632;28;20029;-75
2023/10/12 08:25:37;;;;;;;8.25;3.40;;;;;;;;;;5053566;28;20028;-75
2023/10/12 08:28:18;;;;;;;11.88;3.63;;;;;;;;;;5053553;28;20025;-75
2023/10/12 08:31:00;;;;;;;7.22;3.17;;;;;;;;;;5055042;28;20017;-75
2023/10/12 08:39:07;;;;;;;8.75;3.58;;;;;;;;;;5054944;28;20423;-75
2023/10/12 08:43:59;;;;;;;8.87;3.40;;;;;;;;;;5054631;28;20028;-75
2023/10/12 08:49:34;;;;;;;10.07;3.20;;;;;;;;;;5054689;28;20020;-75
2023/10/12 08:52:05;;;;;;;6.57;3.60;;;;;;;;;;5054371;28;20116;-75
2023/10/12 08:54:37;;;;;;;9.10;3.47;;;;;;;;;;5053086;28;20476;-74
2023/10/12 08:57:13;;;;;;;10.25;3.88;;;;;;;;;;5054348;28;20377;-75
2023/10/12 08:59:42;;;;;;;5.07;3.33;;;;;;;;;;5051962;28;20545;-75
2023/10/12 09:02:20;;;;;;;12.90;3.47;;;;;;;;;;5054069;28;20496;-75
2023/10/12 09:04:51;;;;;;;10.80;3.45;;;;;;;;;;5054268;28;20048;-75
2023/10/12 09:07:19;;;;;;;6.25;3.22;;;;;;;;;;5054346;28;20082;-75
2023/10/12 09:09:48;;;;;;;9.43;4.10;;;;;;;;;;5053989;28;20489;-75
2023/10/12 09:12:19;;;;;;;9.45;3.67;;;;;;;;;;5054117;28;20420;-75
2023/10/12 09:14:44;;;;;;;11.30;3.78;;;;;;;;;;5052562;28;20021;-75
2023/10/12 09:17:20;;;;;;;7.93;3.78;;;;;;;;;;5053024;28;20021;-75
2023/10/12 09:19:47;;;;;;;9.50;3.67;;;;;;;;;;5054099;28;20029;-75
2023/10/12 09:22:12;;;;;;;9.88;4.18;;;;;;;;;;5052418;28;20028;-75
2023/10/12 09:24:37;;;;;;;9.68;3.60;;;;;;;;;;5054068;28;20391;-75
2023/10/12 09:27:14;;;;;;;12.43;4.22;;;;;;;;;;5053924;28;20078;-75
2023/10/12 09:29:49;;;;;;;7.75;3.58;;;;;;;;;;5053631;28;20059;-75
2023/10/12 09:35:03;;;;;;;11.13;3.53;;;;;;;;;;5053919;28;20456;-75
2023/10/12 09:37:33;;;;;;;8.77;3.03;;;;;;;;;;5053244;28;20328;-75
2023/10/12 09:39:59;;;;;;;9.25;3.35;;;;;;;;;;5053589;28;20568;-75
2023/10/12 09:42:27;;;;;;;6.78;3.17;;;;;;;;;;5053322;28;20033;-75
2023/10/12 09:45:01;;;;;;;11.82;3.55;;;;;;;;;;5053117;28;20032;-75
2023/10/12 09:47:43;;;;;;;7.82;3.20;;;;;;;;;;5052006;28;20032;-75
2023/10/12 09:50:13;;;;;;;8.88;3.22;;;;;;;;;;5053544;28;20037;-75
2023/10/12 09:52:46;;;;;;;10.07;3.72;;;;;;;;;;5053194;28;20025;-75
2023/10/12 09:55:23;;;;;;;9.80;3.70;;;;;;;;;;5052832;28;20033;-75
2023/10/12 09:57:52;;;;;;;8.38;3.17;;;;;;;;;;5053129;28;20089;-75
2023/10/12 10:00:27;;;;;;;6.78;3.30;;;;;;;;;;5053111;28;20155;-75
2023/10/12 10:02:59;;;;;;;10.65;3.60;;;;;;;;;;5051696;28;20028;-75
2023/10/12 10:07:58;;;;;;;7.22;2.88;;;;;;;;;;5053294;28;20024;-74
2023/10/12 10:10:30;;;;;;;9.52;3.53;;;;;;;;;;5052978;28;20025;-74
2023/10/12 10:13:00;;;;;;;8.48;3.25;;;;;;;;;;5053296;28;20086;-75
2023/10/12 10:15:36;;;;;;;5.93;2.35;;;;;;;;;;5051574;28;20055;-74
2023/10/12 10:18:05;;;;;;;9.18;3.00;;;;;;;;;;5053094;28;20091;-75
2023/10/12 10:20:56;;;;;;;5.47;2.95;;;;;;;;;;5051590;28;20036;-75
2023/10/12 10:23:22;;;;;;;7.70;2.88;;;;;;;;;;5052728;28;20117;-75
2023/10/12 10:26:13;;;;;;;8.75;2.80;;;;;;;;;;5052722;28;20495;-75
2023/10/12 10:28:38;;;;;;;6.07;2.78;;;;;;;;;;5051500;28;20037;-76
2023/10/12 10:31:07;;;;;;;5.65;2.40;;;;;;;;;;5052627;28;20027;-75
2023/10/12 10:33:36;;;;;;;6.97;2.50;;;;;;;;;;5052534;28;20021;-75
2023/10/12 10:36:10;;;;;;;4.97;2.35;;;;;;;;;;5052512;28;20024;-75
2023/10/12 10:38:42;;;;;;;9.75;2.50;;;;;;;;;;5052646;28;20029;-75
2023/10/12 10:41:07;;;;;;;7.60;2.38;;;;;;;;;;5052637;28;20032;-75
2023/10/12 10:43:37;;;;;;;12.77;2.33;;;;;;;;;;5053028;28;20447;-75
2023/10/12 10:46:13;;;;;;;6.43;2.30;;;;;;;;;;5051149;28;20025;-75
2023/10/12 10:48:40;;;;;;;6.88;2.50;;;;;;;;;;5052084;28;20091;-75
2023/10/12 10:51:18;;;;;;;5.03;2.40;;;;;;;;;;5052444;28;20021;-75
2023/10/12 10:53:51;;;;;;;6.47;2.28;;;;;;;;;;5052401;28;20066;-75
2023/10/12 10:56:17;;;;;;;3.75;2.25;;;;;;;;;;5052511;28;20021;-75
2023/10/12 10:58:46;;;;;;;6.13;2.40;;;;;;;;;;5052475;28;20400;-75
2023/10/12 11:01:14;;;;;;;6.45;2.50;;;;;;;;;;5052620;28;20032;-75
2023/10/12 11:03:40;;;;;;;9.10;3.13;;;;;;;;;;5051108;28;20021;-75
2023/10/12 11:06:21;;;;;;;9.55;2.47;;;;;;;;;;5052319;28;20025;-75
2023/10/12 11:08:53;;;;;;;9.02;2.33;;;;;;;;;;5052950;28;20029;-75
2023/10/12 11:11:25;;;;;;;7.63;2.20;;;;;;;;;;5052681;28;20167;-75
2023/10/12 11:13:52;;;;;;;8.23;2.15;;;;;;;;;;5052318;28;20040;-75
2023/10/12 11:16:30;;;;;;;8.40;2.47;;;;;;;;;;5052437;28;20047;-75
2023/10/12 11:18:57;;;;;;;7.40;2.25;;;;;;;;;;5051124;28;20484;-75
2023/10/12 11:21:25;;;;;;;6.45;2.50;;;;;;;;;;5052304;28;20484;-75
2023/10/12 11:23:56;;;;;;;6.95;2.20;;;;;;;;;;5054710;28;20446;-75
2023/10/12 11:26:22;;;;;;;9.90;2.20;;;;;;;;;;5054814;28;20122;-76
2023/10/12 11:29:02;;;;;;;7.05;2.50;;;;;;;;;;5056115;28;20029;-76
2023/10/12 11:31:30;;;;;;;5.90;2.35;;;;;;;;;;5056003;28;20028;-77
2023/10/12 11:33:57;;;;;;;6.68;2.33;;;;;;;;;;5055941;28;20495;-76
2023/10/12 11:36:25;;;;;;;7.18;2.33;;;;;;;;;;5055851;28;20163;-76
2023/10/12 11:38:58;;;;;;;7.43;2.33;;;;;;;;;;5055857;28;20108;-76
2023/10/12 11:41:25;;;;;;;6.95;2.20;;;;;;;;;;5054595;28;20029;-77
2023/10/12 11:43:53;;;;;;;5.45;2.40;;;;;;;;;;5055694;28;20033;-77
2023/10/12 11:46:18;;;;;;;4.93;2.20;;;;;;;;;;5055064;28;20078;-76
2023/10/12 11:48:44;;;;;;;7.85;2.47;;;;;;;;;;5055657;28;20029;-76
2023/10/12 11:51:13;;;;;;;7.30;2.63;;;;;;;;;;5054292;28;20024;-75
2023/10/12 11:53:39;;;;;;;9.73;3.10;;;;;;;;;;5054264;28;20384;-77
2023/10/12 11:56:17;;;;;;;5.90;2.40;;;;;;;;;;5055671;28;20545;-75
2023/10/12 11:58:48;;;;;;;7.28;2.30;;;;;;;;;;5055567;28;20040;-75
2023/10/12 12:01:14;;;;;;;4.95;2.33;;;;;;;;;;5055982;28;20371;-75
2023/10/12 12:03:45;;;;;;;7.88;2.30;;;;;;;;;;5055545;28;20017;-75
2023/10/12 12:06:12;;;;;;;7.47;2.28;;;;;;;;;;5055460;28;20429;-75
2023/10/12 12:08:37;;;;;;;7.50;2.22;;;;;;;;;;5055258;28;20369;-76
2023/10/12 12:11:08;;;;;;;7.80;2.20;;;;;;;;;;5055218;28;20028;-75
2023/10/12 12:13:42;;;;;;;6.97;2.58;;;;;;;;;;5054557;28;20024;-75
2023/10/12 12:16:08;;;;;;;5.32;2.40;;;;;;;;;;5053755;28;20021;-75
2023/10/12 12:18:33;;;;;;;5.53;2.42;;;;;;;;;;5055056;28;20506;-76
2023/10/12 12:21:02;;;;;;;9.60;2.60;;;;;;;;;;5055186;28;20033;-75
2023/10/12 12:23:33;;;;;;;6.03;2.42;;;;;;;;;;5054990;28;20020;-75
2023/10/12 12:26:07;;;;;;;7.38;2.45;;;;;;;;;;5054886;28;20067;-75
2023/10/12 12:28:33;;;;;;;8.95;2.60;;;;;;;;;;5054835;28;20028;-75
2023/10/12 12:31:00;;;;;;;9.02;2.60;;;;;;;;;;5054781;28;20438;-75
2023/10/12 12:33:29;;;;;;;8.55;2.20;;;;;;;;;;5054544;28;20028;-76
2023/10/12 12:35:59;;;;;;;8.85;2.58;;;;;;;;;;5053145;28;20454;-76
2023/10/12 12:38:43;;;;;;;5.68;2.15;;;;;;;;;;5055013;28;20037;-76
2023/10/12 12:41:18;;;;;;;6.72;2.33;;;;;;;;;;5054776;28;20056;-75
2023/10/12 12:43:47;;;;;;;12.10;2.28;;;;;;;;;;5054574;28;20033;-75
2023/10/12 12:46:12;;;;;;;7.72;2.50;;;;;;;;;;5054500;28;20063;-74
2023/10/12 12:48:38;;;;;;;6.38;2.35;;;;;;;;;;5054445;28;20060;-74
2023/10/12 12:51:08;;;;;;;5.45;2.30;;;;;;;;;;5054507;28;20028;-74
2023/10/12 12:53:34;;;;;;;7.72;2.53;;;;;;;;;;5054340;28;20029;-75
2023/10/12 12:56:02;;;;;;;9.30;2.70;;;;;;;;;;5054388;28;20024;-76
2023/10/12 12:58:28;;;;;;;10.95;2.58;;;;;;;;;;5054609;28;20025;-76
2023/10/12 13:00:53;;;;;;;10.23;2.50;;;;;;;;;;5054229;28;20025;-74
2023/10/12 13:03:18;;;;;;;5.82;2.35;;;;;;;;;;5054400;28;20395;-75
2023/10/12 13:05:44;;;;;;;5.53;2.35;;;;;;;;;;5052835;28;20032;-75
2023/10/12 13:08:11;;;;;;;8.02;2.75;;;;;;;;;;5054001;28;20070;-74
2023/10/12 13:10:37;;;;;;;14.23;2.60;;;;;;;;;;5052675;28;20118;-74
2023/10/12 13:13:03;;;;;;;5.70;2.40;;;;;;;;;;5053875;28;20025;-76
2023/10/12 13:15:28;;;;;;;6.78;2.53;;;;;;;;;;5054226;28;20059;-74
2023/10/12 13:17:56;;;;;;;7.55;2.42;;;;;;;;;;5052502;28;20448;-74
2023/10/12 13:20:21;;;;;;;8.05;2.42;;;;;;;;;;5052456;28;20484;-74
2023/10/12 13:22:50;;;;;;;9.27;2.58;;;;;;;;;;5053691;28;20021;-76
2023/10/12 13:25:18;;;;;;;7.82;2.40;;;;;;;;;;5053747;28;20025;-74
2023/10/12 13:27:44;;;;;;;6.07;2.50;;;;;;;;;;5052419;28;20021;-73
2023/10/12 13:30:10;;;;;;;7.32;2.63;;;;;;;;;;5053711;28;20028;-74
2023/10/12 13:32:36;;;;;;;5.68;2.30;;;;;;;;;;5053496;28;20052;-74
2023/10/12 13:35:17;;;;;;;10.18;2.75;;;;;;;;;;5053671;28;20448;-74
2023/10/12 13:37:44;;;;;;;5.05;2.38;;;;;;;;;;5052169;28;20029;-75
2023/10/12 13:40:15;;;;;;;6.57;2.30;;;;;;;;;;5052172;28;20496;-75
2023/10/12 13:42:40;;;;;;;5.88;2.60;;;;;;;;;;5053447;28;20519;-75
2023/10/12 13:45:06;;;;;;;7.85;2.58;;;;;;;;;;5053473;28;20025;-75
2023/10/12 13:47:31;;;;;;;8.55;2.38;;;;;;;;;;5051957;28;20025;-76
2023/10/12 13:49:57;;;;;;;8.23;2.85;;;;;;;;;;5053372;28;20021;-75
2023/10/12 13:52:22;;;;;;;9.63;2.83;;;;;;;;;;5053462;28;20021;-74
2023/10/12 13:54:47;;;;;;;9.07;2.47;;;;;;;;;;5053360;28;20262;-75
2023/10/12 13:57:14;;;;;;;8.05;2.30;;;;;;;;;;5053283;28;20273;-75
2023/10/12 13:59:40;;;;;;;10.05;2.40;;;;;;;;;;5051994;28;20530;-75
2023/10/12 14:02:09;;;;;;;7.10;2.58;;;;;;;;;;5051832;28;20108;-75
2023/10/12 14:04:34;;;;;;;8.60;2.60;;;;;;;;;;5053285;28;20021;-76
2023/10/12 14:07:03;;;;;;;5.32;2.40;;;;;;;;;;5053778;28;20013;-76
2023/10/12 14:09:32;;;;;;;7.85;2.60;;;;;;;;;;5053524;28;20103;-75
2023/10/12 14:11:57;;;;;;;14.93;2.75;;;;;;;;;;5053226;28;20106;-76
2023/10/12 14:14:27;;;;;;;10.05;2.80;;;;;;;;;;5052965;28;20480;-75
2023/10/12 14:16:52;;;;;;;11.15;2.78;;;;;;;;;;5051593;28;20028;-75
2023/10/12 14:19:22;;;;;;;8.88;2.72;;;;;;;;;;5052972;28;20029;-75
2023/10/12 14:21:51;;;;;;;6.50;2.55;;;;;;;;;;5052957;28;20032;-75
2023/10/12 14:24:17;;;;;;;11.63;2.75;;;;;;;;;;5052922;28;20021;-75
2023/10/12 14:26:44;;;;;;;8.05;2.67;;;;;;;;;;5052904;28;20394;-75
2023/10/12 14:29:10;;;;;;;9.07;2.65;;;;;;;;;;5051565;28;20098;-75
2023/10/12 14:31:35;;;;;;;10.10;2.60;;;;;;;;;;5052968;28;20427;-75
2023/10/12 14:34:02;;;;;;;6.82;2.53;;;;;;;;;;5051412;28;20533;-75
2023/10/12 14:36:27;;;;;;;12.30;3.25;;;;;;;;;;5052713;28;20025;-74
2023/10/12 14:38:55;;;;;;;7.20;2.30;;;;;;;;;;5052927;28;20476;-75
2023/10/12 14:41:24;;;;;;;11.18;2.70;;;;;;;;;;5052706;28;20021;-75
2023/10/12 14:43:50;;;;;;;8.60;2.60;;;;;;;;;;5051440;28;20017;-75
2023/10/12 14:46:18;;;;;;;8.48;2.60;;;;;;;;;;5052662;28;20100;-75
2023/10/12 14:48:43;;;;;;;6.90;2.47;;;;;;;;;;5052589;28;20017;-75
2023/10/12 14:51:17;;;;;;;5.93;2.60;;;;;;;;;;5052731;28;20031;-75
2023/10/12 14:53:44;;;;;;;9.68;2.55;;;;;;;;;;5051367;28;20052;-75
2023/10/12 14:56:13;;;;;;;10.23;2.80;;;;;;;;;;5051210;28;20071;-75
2023/10/12 14:58:38;;;;;;;6.85;2.60;;;;;;;;;;5054891;28;20067;-74
2023/10/12 15:01:13;;;;;;;8.63;2.70;;;;;;;;;;5056410;28;20024;-74
2023/10/12 15:03:42;;;;;;;7.50;2.80;;;;;;;;;;5056479;28;20028;-75
2023/10/12 15:06:07;;;;;;;6.15;2.90;;;;;;;;;;5056451;28;20536;-74
2023/10/12 15:08:36;;;;;;;7.93;2.63;;;;;;;;;;5056352;28;20112;-74
2023/10/12 15:11:02;;;;;;;9.30;3.15;;;;;;;;;;5056534;28;20616;-75
2023/10/12 15:13:31;;;;;;;10.30;2.33;;;;;;;;;;5056770;28;20029;-75
2023/10/12 15:15:58;;;;;;;14.02;2.90;;;;;;;;;;5056572;28;20492;-76
2023/10/12 15:18:23;;;;;;;7.38;2.80;;;;;;;;;;5054913;28;20086;-76
2023/10/12 15:20:50;;;;;;;7.47;2.53;;;;;;;;;;5054866;28;20029;-76
2023/10/12 15:23:16;;;;;;;7.75;2.75;;;;;;;;;;5056032;28;20028;-76
2023/10/12 15:25:42;;;;;;;9.95;2.58;;;;;;;;;;5056043;28;20155;-75
2023/10/12 15:28:07;;;;;;;8.75;2.78;;;;;;;;;;5055885;28;20017;-76
2023/10/12 15:30:33;;;;;;;13.20;2.75;;;;;;;;;;5056293;28;20031;-76
2023/10/12 15:32:59;;;;;;;9.18;2.45;;;;;;;;;;5056119;28;20116;-76
2023/10/12 15:35:26;;;;;;;6.57;2.70;;;;;;;;;;5055676;28;20392;-76
2023/10/12 15:37:57;;;;;;;8.60;2.78;;;;;;;;;;5054564;28;20091;-74
2023/10/12 15:40:25;;;;;;;5.55;2.65;;;;;;;;;;5055776;28;20095;-74
2023/10/12 15:42:52;;;;;;;8.30;2.80;;;;;;;;;;5055623;28;20031;-75
2023/10/12 15:45:21;;;;;;;7.68;3.10;;;;;;;;;;5056028;28;20025;-74
2023/10/12 15:47:48;;;;;;;10.02;2.78;;;;;;;;;;5055605;28;20448;-74
2023/10/12 15:50:14;;;;;;;9.50;2.53;;;;;;;;;;5054291;28;20028;-74
2023/10/12 15:52:40;;;;;;;5.88;2.50;;;;;;;;;;5054141;28;20020;-74
2023/10/12 15:55:07;;;;;;;11.15;2.97;;;;;;;;;;5054254;28;20491;-74
2023/10/12 15:57:33;;;;;;;12.15;2.40;;;;;;;;;;5055619;28;20029;-74
2023/10/12 15:59:59;;;;;;;11.23;3.10;;;;;;;;;;5054060;28;20115;-74
2023/10/12 16:02:25;;;;;;;9.20;2.90;;;;;;;;;;5055208;28;20425;-74
2023/10/12 16:04:53;;;;;;;11.30;2.88;;;;;;;;;;5053846;28;20035;-74
2023/10/12 16:07:18;;;;;;;7.47;2.75;;;;;;;;;;5054145;28;20028;-74
2023/10/12 16:09:46;;;;;;;10.45;2.63;;;;;;;;;;5054749;28;20025;-75
2023/10/12 16:12:17;;;;;;;6.00;2.47;;;;;;;;;;5055120;28;20522;-75
2023/10/12 16:14:43;;;;;;;6.90;2.78;;;;;;;;;;5055499;28;20032;-75
2023/10/12 16:17:09;;;;;;;7.47;2.70;;;;;;;;;;5055038;28;20150;-74
2023/10/12 16:19:34;;;;;;;11.10;3.20;;;;;;;;;;5054560;28;20116;-75
2023/10/12 16:21:59;;;;;;;6.68;2.85;;;;;;;;;;5053715;28;20477;-75
2023/10/12 16:24:25;;;;;;;10.77;2.65;;;;;;;;;;5054869;28;20021;-75
2023/10/12 16:26:50;;;;;;;6.53;2.58;;;;;;;;;;5054815;28;20024;-75
2023/10/12 16:29:15;;;;;;;9.18;2.80;;;;;;;;;;5054777;28;20028;-75
2023/10/12 16:31:40;;;;;;;10.20;2.92;;;;;;;;;;5054733;28;20025;-74
2023/10/12 16:34:09;;;;;;;14.18;2.92;;;;;;;;;;5053750;28;20116;-75
2023/10/12 16:36:35;;;;;;;6.40;2.53;;;;;;;;;;5054664;28;20032;-74